createdAt,value
2023-04-20T00:01:08.518Z,65.40
2023-04-20T00:03:54.570Z,65.30
2023-04-20T00:06:42.320Z,65.10
2023-04-20T00:09:28.616Z,64.70
2023-04-20T00:12:14.018Z,65.30
2023-04-20T00:14:59.433Z,65.30
2023-04-20T00:17:45.578Z,65.40
2023-04-20T00:20:31.891Z,66.80
2023-04-20T00:23:19.037Z,66.40
2023-04-20T00:26:04.892Z,66.40
2023-04-20T00:28:51.151Z,66.20
2023-04-20T00:31:36.807Z,66.90
2023-04-20T00:34:22.854Z,67.20
2023-04-20T00:37:08.272Z,66.10
2023-04-20T00:39:55.753Z,67.20
2023-04-20T00:42:42.281Z,67.00
2023-04-20T00:45:27.872Z,67.70
2023-04-20T00:48:13.744Z,68.30
2023-04-20T00:51:02.400Z,68.50
2023-04-20T00:53:48.307Z,68.00
2023-04-20T00:56:35.340Z,68.70
2023-04-20T00:59:21.902Z,68.60
2023-04-20T01:02:08.237Z,68.40
2023-04-20T01:04:54.684Z,68.10
2023-04-20T01:07:40.946Z,68.80
2023-04-20T01:10:26.762Z,67.90
2023-04-20T01:13:13.951Z,68.00
2023-04-20T01:16:03.641Z,69.00
2023-04-20T01:18:51.018Z,69.30
2023-04-20T01:21:36.756Z,69.90
2023-04-20T01:24:23.577Z,70.40
2023-04-20T01:27:10.464Z,71.00
2023-04-20T01:29:59.238Z,71.60
2023-04-20T01:32:45.409Z,72.10
2023-04-20T01:35:31.280Z,72.80
2023-04-20T01:38:18.346Z,73.60
2023-04-20T01:41:07.439Z,74.00
2023-04-20T01:43:53.395Z,74.20
2023-04-20T01:46:41.953Z,74.30
2023-04-20T01:49:27.944Z,74.90
2023-04-20T01:52:13.674Z,75.00
2023-04-20T01:55:00.047Z,76.80
2023-04-20T01:57:47.423Z,76.90
2023-04-20T02:00:33.078Z,78.00
2023-04-20T02:03:19.273Z,78.80
2023-04-20T02:06:06.629Z,79.20
2023-04-20T02:08:52.698Z,78.60
2023-04-20T02:11:38.595Z,77.60
2023-04-20T02:14:26.829Z,78.10
2023-04-20T02:17:12.547Z,78.90
2023-04-20T02:19:59.780Z,79.10
2023-04-20T02:22:46.161Z,79.80
2023-04-20T02:25:31.506Z,80.40
2023-04-20T02:28:17.436Z,82.00
2023-04-20T02:31:04.482Z,82.50
2023-04-20T02:33:50.004Z,83.80
2023-04-20T02:36:35.898Z,84.90
2023-04-20T02:39:23.437Z,84.40
2023-04-20T02:42:09.084Z,84.50
2023-04-20T02:44:55.034Z,84.80
2023-04-20T02:47:42.333Z,84.90
2023-04-20T02:50:29.482Z,85.60
2023-04-20T02:53:27.106Z,84.60
2023-04-20T02:56:39.083Z,84.60
2023-04-20T02:59:27.870Z,84.30
2023-04-20T03:02:19.612Z,84.50
2023-04-20T03:05:07.410Z,85.00
2023-04-20T03:08:00.432Z,85.70
2023-04-20T03:10:46.269Z,85.50
2023-04-20T03:13:36.277Z,85.40
2023-04-20T03:16:22.569Z,86.30
2023-04-20T03:19:10.719Z,87.20
2023-04-20T03:21:57.668Z,87.90
2023-04-20T03:24:43.377Z,87.40
2023-04-20T03:27:37.833Z,87.40
2023-04-20T03:30:29.150Z,88.00
2023-04-20T03:33:31.546Z,88.50
2023-04-20T03:36:17.496Z,88.40
2023-04-20T03:39:04.586Z,87.90
2023-04-20T03:41:50.370Z,87.70
2023-04-20T03:44:36.363Z,87.80
2023-04-20T03:47:24.836Z,88.80
2023-04-20T03:50:10.933Z,89.30
2023-04-20T03:52:57.835Z,89.50
2023-04-20T03:55:44.971Z,89.40
2023-04-20T03:58:35.160Z,90.00
2023-04-20T04:01:39.140Z,90.20
2023-04-20T04:04:26.526Z,90.30
2023-04-20T04:07:12.520Z,90.30
2023-04-20T04:10:00.220Z,90.20
2023-04-20T04:12:47.595Z,90.00
2023-04-20T04:15:33.780Z,89.40
2023-04-20T04:18:32.307Z,90.20
2023-04-20T04:21:22.043Z,90.10
2023-04-20T04:24:15.291Z,90.00
2023-04-20T04:27:23.515Z,90.50
2023-04-20T04:30:15.867Z,90.50
2023-04-20T04:33:04.697Z,90.30
2023-04-20T04:35:53.845Z,90.20
2023-04-20T04:38:40.290Z,90.00
2023-04-20T04:41:27.651Z,90.50
2023-04-20T04:44:22.246Z,90.70
2023-04-20T04:47:09.654Z,91.10
2023-04-20T04:49:55.662Z,90.90
2023-04-20T04:52:41.435Z,90.90
2023-04-20T04:55:27.100Z,91.50
2023-04-20T04:58:13.054Z,92.30
2023-04-20T05:00:58.352Z,92.30
2023-04-20T05:03:45.797Z,92.40
2023-04-20T05:06:32.575Z,92.40
2023-04-20T05:09:18.630Z,92.70
2023-04-20T05:12:04.693Z,93.40
2023-04-20T05:14:50.635Z,93.80
2023-04-20T05:17:36.158Z,94.10
2023-04-20T05:20:23.883Z,94.20
2023-04-20T05:23:09.500Z,94.30
2023-04-20T05:25:54.905Z,94.20
2023-04-20T05:28:40.713Z,94.20
2023-04-20T05:31:26.565Z,94.60
2023-04-20T05:34:12.505Z,94.30
2023-04-20T05:37:00.122Z,94.70
2023-04-20T05:39:46.588Z,94.40
2023-04-20T05:42:31.990Z,95.20
2023-04-20T05:45:18.043Z,94.70
2023-04-20T05:48:04.405Z,95.00
2023-04-20T05:50:50.390Z,94.50
2023-04-20T05:53:37.297Z,95.00
2023-04-20T05:56:23.359Z,94.60
2023-04-20T05:59:09.316Z,94.60
2023-04-20T06:01:55.021Z,93.50
2023-04-20T06:04:42.398Z,93.70
2023-04-20T06:07:28.413Z,93.00
2023-04-20T06:10:15.945Z,92.80
2023-04-20T06:13:01.914Z,92.00
2023-04-20T06:15:47.820Z,90.80
2023-04-20T06:18:34.072Z,88.60
2023-04-20T06:21:24.739Z,87.10
2023-04-20T06:24:10.542Z,84.70
2023-04-20T06:26:57.395Z,85.20
2023-04-20T06:29:43.077Z,87.60
2023-04-20T06:32:28.720Z,88.90
2023-04-20T06:35:14.723Z,90.20
2023-04-20T06:38:02.443Z,90.40
2023-04-20T06:40:48.485Z,91.10
2023-04-20T06:43:35.681Z,91.00
2023-04-20T06:46:21.361Z,93.60
2023-04-20T06:49:07.581Z,94.60
2023-04-20T06:51:53.439Z,94.20
2023-04-20T06:54:38.835Z,94.20
2023-04-20T06:57:24.679Z,94.20
2023-04-20T07:00:12.700Z,94.20
2023-04-20T07:02:58.478Z,93.90
2023-04-20T07:05:44.236Z,93.80
2023-04-20T07:08:30.125Z,93.50
2023-04-20T07:11:15.764Z,93.70
2023-04-20T07:14:01.899Z,93.80
2023-04-20T07:16:52.570Z,93.10
2023-04-20T07:19:38.304Z,93.40
2023-04-20T07:22:24.132Z,93.80
2023-04-20T07:25:11.109Z,93.40
2023-04-20T07:27:56.987Z,93.60
2023-04-20T07:30:42.871Z,94.10
2023-04-20T07:33:31.963Z,94.30
2023-04-20T07:36:18.051Z,94.70
2023-04-20T07:39:05.220Z,95.00
2023-04-20T07:41:51.158Z,94.00
2023-04-20T07:44:37.299Z,94.30
2023-04-20T07:47:23.292Z,93.90
2023-04-20T07:50:11.178Z,93.60
2023-04-20T07:52:56.975Z,93.70
2023-04-20T07:55:42.490Z,94.00
2023-04-20T07:58:28.544Z,94.50
2023-04-20T08:01:14.244Z,95.10
2023-04-20T08:03:59.990Z,95.30
2023-04-20T08:06:47.356Z,94.40
2023-04-20T08:09:32.997Z,93.00
2023-04-20T08:12:18.958Z,92.00
2023-04-20T08:15:10.143Z,91.70
2023-04-20T08:17:55.785Z,91.20
2023-04-20T08:20:41.937Z,91.10
2023-04-20T08:23:28.933Z,92.00
2023-04-20T08:26:15.877Z,92.00
2023-04-20T08:29:02.779Z,91.50
2023-04-20T08:31:50.025Z,92.10
2023-04-20T08:34:37.191Z,92.50
2023-04-20T08:37:23.292Z,92.70
2023-04-20T08:40:11.394Z,91.50
2023-04-20T08:42:57.296Z,91.80
2023-04-20T08:45:47.346Z,91.80
2023-04-20T08:48:36.341Z,91.10
2023-04-20T08:51:22.995Z,91.70
2023-04-20T08:54:10.419Z,92.30
2023-04-20T08:56:58.758Z,92.60
2023-04-20T08:59:44.252Z,92.90
2023-04-20T09:02:30.143Z,93.30
2023-04-20T09:05:16.466Z,93.40
2023-04-20T09:08:02.211Z,94.40
2023-04-20T09:10:47.800Z,94.60
2023-04-20T09:13:35.259Z,94.10
2023-04-20T09:16:21.257Z,94.00
2023-04-20T09:19:09.214Z,94.10
2023-04-20T09:21:58.936Z,94.70
2023-04-20T09:24:44.664Z,94.50
2023-04-20T09:27:30.303Z,94.50
2023-04-20T09:30:17.495Z,94.00
2023-04-20T09:33:03.747Z,94.10
2023-04-20T09:35:49.720Z,94.90
2023-04-20T09:38:35.273Z,95.70
2023-04-20T09:41:21.168Z,96.60
2023-04-20T09:44:08.512Z,96.30
2023-04-20T09:46:55.820Z,95.10
2023-04-20T09:49:41.651Z,94.10
2023-04-20T09:52:28.030Z,93.80
2023-04-20T09:55:13.833Z,94.30
2023-04-20T09:58:01.848Z,94.60
2023-04-20T10:00:47.623Z,95.40
2023-04-20T10:03:35.347Z,95.70
2023-04-20T10:06:22.478Z,95.70
2023-04-20T10:09:08.865Z,96.20
2023-04-20T10:12:06.174Z,96.10
2023-04-20T10:14:55.750Z,95.90
2023-04-20T10:17:41.846Z,95.50
2023-04-20T10:20:29.645Z,96.00
2023-04-20T10:23:16.439Z,95.50
2023-04-20T10:26:03.838Z,94.20
2023-04-20T10:28:49.922Z,93.10
2023-04-20T10:31:38.000Z,92.90
2023-04-20T10:34:31.245Z,92.10
2023-04-20T10:37:19.054Z,91.80
2023-04-20T10:40:10.571Z,90.80
2023-04-20T10:42:56.024Z,90.00
2023-04-20T10:45:42.420Z,87.80
2023-04-20T10:48:28.357Z,84.70
2023-04-20T10:51:13.893Z,84.80
2023-04-20T10:54:05.452Z,82.00
2023-04-20T10:56:52.333Z,80.00
2023-04-20T10:59:41.709Z,77.60
2023-04-20T11:02:28.298Z,80.00
2023-04-20T11:05:15.092Z,80.50
2023-04-20T11:08:04.064Z,80.90
2023-04-20T11:10:51.442Z,78.90
2023-04-20T11:13:37.100Z,83.00
2023-04-20T11:16:26.238Z,83.70
2023-04-20T11:19:23.295Z,83.40
2023-04-20T11:22:09.254Z,85.70
2023-04-20T11:25:05.663Z,86.40
2023-04-20T11:27:52.626Z,88.80
2023-04-20T11:30:39.537Z,90.60
2023-04-20T11:33:28.132Z,89.90
2023-04-20T11:36:19.545Z,85.90
2023-04-20T11:39:09.713Z,86.10
2023-04-20T11:41:56.600Z,86.90
2023-04-20T11:44:44.136Z,88.60
2023-04-20T11:47:29.859Z,88.70
2023-04-20T11:50:15.993Z,89.00
2023-04-20T11:53:02.482Z,88.60
2023-04-20T11:55:48.393Z,88.70
2023-04-20T11:58:34.366Z,88.80
2023-04-20T12:01:21.573Z,90.00
2023-04-20T12:04:07.729Z,88.30
2023-04-20T12:06:53.794Z,87.60
2023-04-20T12:09:40.397Z,87.00
2023-04-20T12:12:26.775Z,88.50
2023-04-20T12:15:13.171Z,91.00
2023-04-20T12:18:01.008Z,91.00
2023-04-20T12:20:47.235Z,91.30
2023-04-20T12:23:33.555Z,91.30
2023-04-20T12:26:19.371Z,91.90
2023-04-20T12:29:04.781Z,92.80
2023-04-20T12:31:50.383Z,92.60
2023-04-20T12:34:37.216Z,92.70
2023-04-20T12:37:23.038Z,92.30
2023-04-20T12:40:10.209Z,91.60
2023-04-20T12:42:56.283Z,92.20
2023-04-20T12:45:41.826Z,91.50
2023-04-20T12:48:27.368Z,91.10
2023-04-20T12:51:15.403Z,91.10
2023-04-20T12:54:01.206Z,91.00
2023-04-20T12:56:47.110Z,91.00
2023-04-20T12:59:35.712Z,90.40
2023-04-20T13:02:21.482Z,90.70
2023-04-20T13:05:08.104Z,90.80
2023-04-20T13:07:55.337Z,90.00
2023-04-20T13:10:43.967Z,90.10
2023-04-20T13:13:29.591Z,90.40
2023-04-20T13:16:16.215Z,90.10
2023-04-20T13:19:02.825Z,90.50
2023-04-20T13:21:48.771Z,91.10
2023-04-20T13:24:36.399Z,89.80
2023-04-20T13:27:21.971Z,88.70
2023-04-20T13:30:09.117Z,90.80
2023-04-20T13:32:55.148Z,91.50
2023-04-20T13:35:41.128Z,91.20
2023-04-20T13:38:26.781Z,91.10
2023-04-20T13:41:14.731Z,91.10
2023-04-20T13:44:01.274Z,91.10
2023-04-20T13:46:48.069Z,90.60
2023-04-20T13:49:33.697Z,90.40
2023-04-20T13:52:19.694Z,90.10
2023-04-20T13:55:06.091Z,89.10
2023-04-20T13:57:53.043Z,88.10
2023-04-20T14:00:39.111Z,87.90
2023-04-20T14:03:25.562Z,88.50
2023-04-20T14:06:11.448Z,90.00
2023-04-20T14:08:56.987Z,87.50
2023-04-20T14:11:43.656Z,87.20
2023-04-20T14:14:31.059Z,88.00
2023-04-20T14:17:16.770Z,88.80
2023-04-20T14:20:03.864Z,87.30
2023-04-20T14:22:49.942Z,87.30
2023-04-20T14:25:35.920Z,89.80
2023-04-20T14:28:21.506Z,89.50
2023-04-20T14:31:08.518Z,88.10
2023-04-20T14:33:54.255Z,85.70
2023-04-20T14:36:40.028Z,84.00
2023-04-20T14:39:25.559Z,84.30
2023-04-20T14:42:11.994Z,86.30
2023-04-20T14:44:57.562Z,87.30
2023-04-20T14:47:44.735Z,88.00
2023-04-20T14:50:31.866Z,89.30
2023-04-20T14:53:17.507Z,88.90
2023-04-20T14:56:03.310Z,89.90
2023-04-20T14:58:49.115Z,89.20
2023-04-20T15:01:34.854Z,90.10
2023-04-20T15:04:22.783Z,90.30
2023-04-20T15:07:09.236Z,90.30
2023-04-20T15:09:54.943Z,90.00
2023-04-20T15:12:40.398Z,90.40
2023-04-20T15:15:31.964Z,90.40
2023-04-20T15:18:23.494Z,89.80
2023-04-20T15:21:11.149Z,90.20
2023-04-20T15:23:57.219Z,89.30
2023-04-20T15:26:42.644Z,91.10
2023-04-20T15:29:28.961Z,91.10
2023-04-20T15:32:15.051Z,90.50
2023-04-20T15:35:01.195Z,89.80
2023-04-20T15:37:48.320Z,86.50
2023-04-20T15:40:33.930Z,87.60
2023-04-20T15:43:19.980Z,85.40
2023-04-20T15:46:06.096Z,84.60
2023-04-20T15:48:51.761Z,86.90
2023-04-20T15:51:38.353Z,87.90
2023-04-20T15:54:25.500Z,87.10
2023-04-20T15:57:11.261Z,87.30
2023-04-20T15:59:56.877Z,86.30
2023-04-20T16:02:42.581Z,85.30
2023-04-20T16:05:28.609Z,83.00
2023-04-20T16:08:14.414Z,82.10
2023-04-20T16:11:01.327Z,81.30
2023-04-20T16:13:46.867Z,80.00
2023-04-20T16:16:32.539Z,79.80
2023-04-20T16:19:18.540Z,78.70
2023-04-20T16:22:04.240Z,80.40
2023-04-20T16:24:49.775Z,82.30
2023-04-20T16:27:37.201Z,83.90
2023-04-20T16:30:22.991Z,84.30
2023-04-20T16:33:08.868Z,84.10
2023-04-20T16:35:54.762Z,82.10
2023-04-20T16:38:40.691Z,82.50
2023-04-20T16:41:27.163Z,79.10
2023-04-20T16:44:14.572Z,79.00
2023-04-20T16:47:01.946Z,80.90
2023-04-20T16:49:48.018Z,85.90
2023-04-20T16:52:34.240Z,86.10
2023-04-20T16:55:20.691Z,86.30
2023-04-20T16:58:06.519Z,87.50
2023-04-20T17:00:53.546Z,87.30
2023-04-20T17:03:39.887Z,87.30
2023-04-20T17:06:26.202Z,85.50
2023-04-20T17:09:12.183Z,85.30
2023-04-20T17:11:59.401Z,84.10
2023-04-20T17:14:45.407Z,83.90
2023-04-20T17:17:33.027Z,81.90
2023-04-20T17:20:19.239Z,80.30
2023-04-20T17:23:05.006Z,79.90
2023-04-20T17:25:51.329Z,79.20
2023-04-20T17:28:37.106Z,81.10
2023-04-20T17:31:22.955Z,82.10
2023-04-20T17:34:10.538Z,84.00
2023-04-20T17:36:56.471Z,84.70
2023-04-20T17:39:42.226Z,85.30
2023-04-20T17:42:28.274Z,85.90
2023-04-20T17:45:14.179Z,84.80
2023-04-20T17:48:00.048Z,83.50
2023-04-20T17:50:49.653Z,85.90
2023-04-20T17:53:35.277Z,86.70
2023-04-20T17:56:20.803Z,86.90
2023-04-20T17:59:06.731Z,86.30
2023-04-20T18:01:52.709Z,85.00
2023-04-20T18:04:39.164Z,86.30
2023-04-20T18:07:26.846Z,84.70
2023-04-20T18:10:15.606Z,85.00
2023-04-20T18:13:01.624Z,86.00
2023-04-20T18:15:47.345Z,86.20
2023-04-20T18:18:34.305Z,85.70
2023-04-20T18:21:19.916Z,87.40
2023-04-20T18:24:07.539Z,87.10
2023-04-20T18:26:53.331Z,85.30
2023-04-20T18:29:39.045Z,86.10
2023-04-20T18:32:24.633Z,85.70
2023-04-20T18:35:11.431Z,86.30
2023-04-20T18:37:57.029Z,87.10
2023-04-20T18:40:45.212Z,86.40
2023-04-20T18:43:31.871Z,85.50
2023-04-20T18:46:18.056Z,85.10
2023-04-20T18:49:03.960Z,85.90
2023-04-20T18:51:49.581Z,84.10
2023-04-20T18:54:37.496Z,84.00
2023-04-20T18:57:26.635Z,83.70
2023-04-20T19:00:13.076Z,83.30
2023-04-20T19:02:59.252Z,83.40
2023-04-20T19:05:44.712Z,83.50
2023-04-20T19:08:32.173Z,83.70
2023-04-20T19:11:18.177Z,84.50
2023-04-20T19:14:05.758Z,84.90
2023-04-20T19:16:51.397Z,85.50
2023-04-20T19:19:37.288Z,86.90
2023-04-20T19:22:23.344Z,87.90
2023-04-20T19:25:09.052Z,89.50
2023-04-20T19:27:55.066Z,90.70
2023-04-20T19:30:42.593Z,91.40
2023-04-20T19:33:28.380Z,91.60
2023-04-20T19:36:14.182Z,91.90
2023-04-20T19:38:59.789Z,92.50
2023-04-20T19:41:45.645Z,92.60
2023-04-20T19:44:31.452Z,92.50
2023-04-20T19:47:20.291Z,92.40
2023-04-20T19:50:07.321Z,92.40
2023-04-20T19:52:53.885Z,92.30
2023-04-20T19:55:40.314Z,92.60
2023-04-20T19:58:29.592Z,92.90
2023-04-20T20:01:15.638Z,93.30
2023-04-20T20:04:03.774Z,93.70
2023-04-20T20:06:50.885Z,94.20
2023-04-20T20:09:39.198Z,94.30
2023-04-20T20:12:25.783Z,94.20
2023-04-20T20:15:11.707Z,94.20
2023-04-20T20:17:58.911Z,94.50
2023-04-20T20:20:46.257Z,95.20
2023-04-20T20:23:32.109Z,94.60
2023-04-20T20:26:18.368Z,94.30
2023-04-20T20:29:06.431Z,94.10
2023-04-20T20:31:52.912Z,93.60
2023-04-20T20:34:39.078Z,93.60
2023-04-20T20:37:26.346Z,93.60
2023-04-20T20:40:14.405Z,93.80
2023-04-20T20:42:59.986Z,94.60
2023-04-20T20:45:47.007Z,95.00
2023-04-20T20:48:32.685Z,95.20
2023-04-20T20:51:18.286Z,95.60
2023-04-20T20:54:05.872Z,95.80
2023-04-20T20:56:51.739Z,96.00
2023-04-20T20:59:37.507Z,96.80
2023-04-20T21:02:23.366Z,97.30
2023-04-20T21:05:10.148Z,97.60
2023-04-20T21:07:56.001Z,97.60
2023-04-20T21:10:43.279Z,97.50
2023-04-20T21:13:29.092Z,97.70
2023-04-20T21:16:14.918Z,97.90
2023-04-20T21:19:00.889Z,99.00
2023-04-20T21:21:46.328Z,99.30
2023-04-20T21:24:32.157Z,99.90
2023-04-20T21:27:19.340Z,99.90
2023-04-20T21:30:05.937Z,99.90
2023-04-20T21:32:51.499Z,99.90
2023-04-20T21:35:37.386Z,99.90
2023-04-20T21:38:23.077Z,99.90
2023-04-20T21:41:08.401Z,99.90
2023-04-20T21:43:56.011Z,99.90
2023-04-20T21:46:44.790Z,99.90
2023-04-20T21:49:30.565Z,99.90
2023-04-20T21:52:29.896Z,99.90
2023-04-20T21:55:25.519Z,99.90
2023-04-20T21:58:17.763Z,99.90
2023-04-20T22:01:05.188Z,99.90
2023-04-20T22:03:51.873Z,99.90
2023-04-20T22:06:37.968Z,99.90
2023-04-20T22:09:23.998Z,99.90
2023-04-20T22:12:09.637Z,99.90
2023-04-20T22:14:55.563Z,99.90
2023-04-20T22:17:45.446Z,99.90
2023-04-20T22:20:31.536Z,99.90
2023-04-20T22:23:17.729Z,99.90
2023-04-20T22:26:03.638Z,99.90
2023-04-20T22:28:49.416Z,99.90
2023-04-20T22:31:35.324Z,99.90
2023-04-20T22:34:22.360Z,99.90
2023-04-20T22:37:08.735Z,99.90
2023-04-20T22:39:54.687Z,99.90
2023-04-20T22:42:40.532Z,99.90
2023-04-20T22:45:26.400Z,99.90
2023-04-20T22:48:12.467Z,99.90
2023-04-20T22:51:00.744Z,99.90
2023-04-20T22:53:46.363Z,99.90
2023-04-20T22:56:33.374Z,99.90
2023-04-20T22:59:19.809Z,99.90
2023-04-20T23:02:05.832Z,99.90
2023-04-20T23:04:51.764Z,99.90
2023-04-20T23:07:39.582Z,99.90
2023-04-20T23:10:28.656Z,99.90
2023-04-20T23:13:16.541Z,99.90
2023-04-20T23:16:02.625Z,99.90
2023-04-20T23:18:48.423Z,99.90
2023-04-20T23:21:34.000Z,99.90
2023-04-20T23:24:21.019Z,99.90
2023-04-20T23:27:06.458Z,99.90
2023-04-20T23:29:52.444Z,99.90
2023-04-20T23:32:37.919Z,99.90
2023-04-20T23:35:23.647Z,99.90
2023-04-20T23:38:09.471Z,99.90
2023-04-20T23:40:56.666Z,99.90
2023-04-20T23:43:42.606Z,99.90
2023-04-20T23:46:28.474Z,99.90
2023-04-20T23:49:14.459Z,99.90
2023-04-20T23:52:00.115Z,99.90
2023-04-20T23:54:46.018Z,99.90
2023-04-20T23:57:33.112Z,99.90
